Time;durP1;ratioP1;P1;durP2;ratioP2;P2;SDS_P1;SDS_P2;PMS_P1;PMS_P2;Temp;Humidity;BMP_temperature;BMP_pressure;BME280_temperature;BME280_humidity;BME280_pressure;Samples;Min_cycle;Max_cycle;Signal;HPM_P1;HPM_P2
2021/06/11 00:01:26;;;;;;;7.90;7.05;;;;;;;21.07;92.37;100932.28;5091697;28;20428;-87
2021/06/11 00:03:51;;;;;;;9.73;8.13;;;;;;;20.98;93.17;100939.41;5093139;28;20038;-87
2021/06/11 00:06:16;;;;;;;15.70;9.25;;;;;;;21.03;92.95;100930.91;5092112;28;20028;-87
2021/06/11 00:08:42;;;;;;;11.43;8.77;;;;;;;21.13;92.34;100934.31;5092752;28;20036;-87
2021/06/11 00:11:07;;;;;;;15.00;9.80;;;;;;;21.15;92.31;100935.00;5093217;28;20123;-87
2021/06/11 00:13:32;;;;;;;16.85;10.07;;;;;;;20.97;94.18;100933.25;5093109;28;20024;-87
2021/06/11 00:15:58;;;;;;;11.30;8.35;;;;;;;21.38;91.79;100936.06;5092810;28;20059;-87
2021/06/11 00:18:23;;;;;;;13.98;9.45;;;;;;;21.57;89.90;100934.16;5092610;28;20024;-87
2021/06/11 00:20:49;;;;;;;13.75;8.13;;;;;;;21.27;92.06;100933.72;5092801;28;20035;-87
2021/06/11 00:23:14;;;;;;;12.23;8.57;;;;;;;21.14;93.20;100931.47;5093058;28;20099;-87
2021/06/11 00:25:39;;;;;;;11.73;8.40;;;;;;;21.09;93.40;100935.63;5092776;28;20047;-87
2021/06/11 00:28:05;;;;;;;10.77;8.27;;;;;;;21.17;93.69;100941.84;5092758;28;20036;-87
2021/06/11 00:30:32;;;;;;;13.18;9.10;;;;;;;21.17;93.30;100933.84;5092718;28;20032;-87
2021/06/11 00:32:58;;;;;;;9.80;7.70;;;;;;;21.39;91.72;100934.25;5092772;28;20030;-87
2021/06/11 00:35:23;;;;;;;10.18;7.28;;;;;;;21.43;90.80;100927.63;5092629;28;20470;-87
2021/06/11 00:37:49;;;;;;;12.52;7.97;;;;;;;21.48;90.45;100935.13;5092383;28;20042;-87
2021/06/11 00:40:14;;;;;;;10.32;8.15;;;;;;;21.47;90.32;100938.81;5092496;28;20107;-87
2021/06/11 00:42:40;;;;;;;11.32;8.50;;;;;;;21.53;89.50;100938.16;5092057;28;20028;-87
2021/06/11 00:45:07;;;;;;;9.70;7.97;;;;;;;21.46;90.36;100934.47;5092463;28;20028;-87
2021/06/11 00:47:33;;;;;;;11.75;8.77;;;;;;;21.46;90.72;100934.47;5092505;28;20055;-87
2021/06/11 00:49:59;;;;;;;11.88;8.73;;;;;;;21.39;90.76;100934.25;5091798;28;20493;-87
2021/06/11 00:52:24;;;;;;;12.23;8.68;;;;;;;21.76;88.49;100933.88;5092276;28;20024;-87
2021/06/11 00:54:50;;;;;;;11.98;9.13;;;;;;;21.90;87.25;100931.53;5092340;28;20024;-87
2021/06/11 00:57:15;;;;;;;11.88;9.07;;;;;;;21.93;87.63;100931.22;5091805;28;20465;-87
2021/06/11 00:59:41;;;;;;;11.93;8.85;;;;;;;22.20;86.33;100929.25;5092229;28;20028;-87
2021/06/11 01:02:08;;;;;;;11.80;8.90;;;;;;;22.22;85.62;100936.06;5092309;28;20052;-87
2021/06/11 01:04:34;;;;;;;13.20;8.85;;;;;;;22.12;86.48;100933.56;5092210;28;20020;-87
2021/06/11 01:07:01;;;;;;;15.05;9.32;;;;;;;22.21;85.70;100931.72;5092068;28;20030;-87
2021/06/11 01:09:28;;;;;;;13.85;9.88;;;;;;;21.95;87.52;100926.53;5091803;28;20028;-87
2021/06/11 01:11:54;;;;;;;10.18;8.77;;;;;;;21.93;87.61;100923.19;5091518;28;20049;-87
2021/06/11 01:14:20;;;;;;;12.55;8.93;;;;;;;21.93;87.56;100931.22;5091886;28;20056;-87
2021/06/11 01:16:45;;;;;;;13.82;8.73;;;;;;;21.86;87.98;100928.38;5091479;28;20192;-87
2021/06/11 01:19:12;;;;;;;14.65;9.20;;;;;;;21.54;90.01;100929.13;5092028;28;20031;-87
2021/06/11 01:21:45;;;;;;;14.70;9.70;;;;;;;21.56;90.93;100921.78;5089994;28;20173;-87
2021/06/11 01:24:15;;;;;;;11.02;8.15;;;;;;;21.66;89.95;100911.78;5091632;28;20020;-87
2021/06/11 01:26:47;;;;;;;13.93;8.65;;;;;;;21.70;89.56;100915.84;5091508;28;20397;-87
2021/06/11 01:29:24;;;;;;;10.60;7.90;;;;;;;21.66;89.98;100914.47;5091675;28;20512;-87
2021/06/11 01:31:53;;;;;;;13.52;7.88;;;;;;;21.63;90.39;100917.47;5090550;28;20162;-87
2021/06/11 01:34:23;;;;;;;12.95;8.07;;;;;;;21.62;90.48;100915.78;5091331;28;20107;-87
2021/06/11 01:36:53;;;;;;;9.70;8.02;;;;;;;21.75;89.23;100910.81;5088128;28;20032;-87
2021/06/11 01:39:20;;;;;;;9.90;8.20;;;;;;;21.78;89.18;100913.16;5091035;28;20181;-87
2021/06/11 01:41:46;;;;;;;10.65;8.02;;;;;;;21.89;88.47;100912.00;5091283;28;20064;-87
2021/06/11 01:44:12;;;;;;;11.57;8.52;;;;;;;21.80;88.85;100907.66;5091482;28;20064;-87
2021/06/11 01:46:41;;;;;;;11.27;8.13;;;;;;;21.66;89.30;100909.13;5091422;28;20032;-87
2021/06/11 01:49:07;;;;;;;10.05;6.97;;;;;;;21.56;89.57;100911.09;5091414;28;20103;-87
2021/06/11 01:51:34;;;;;;;14.00;6.95;;;;;;;21.66;89.22;100921.66;5090979;28;20091;-87
2021/06/11 01:54:02;;;;;;;7.88;5.95;;;;;;;21.70;88.90;100913.16;5091139;28;20023;-87
2021/06/11 01:56:29;;;;;;;8.23;6.10;;;;;;;21.75;88.59;100918.81;5091076;28;20024;-87
2021/06/11 01:58:56;;;;;;;10.18;5.78;;;;;;;21.72;88.96;100919.19;5091208;28;20062;-87
2021/06/11 02:01:22;;;;;;;7.95;5.78;;;;;;;21.78;88.21;100915.84;5091132;28;20020;-87
2021/06/11 02:03:50;;;;;;;7.75;5.60;;;;;;;21.81;87.85;100911.16;5091272;28;20039;-87
2021/06/11 02:06:17;;;;;;;7.30;5.47;;;;;;;21.71;88.60;100913.97;5091087;28;20027;-87
2021/06/11 02:08:49;;;;;;;7.20;4.95;;;;;;;21.72;88.00;100908.47;5090984;28;20039;-87
2021/06/11 02:11:15;;;;;;;8.45;5.60;;;;;;;21.64;88.61;100908.44;5091005;28;20489;-87
2021/06/11 02:13:43;;;;;;;10.10;5.65;;;;;;;21.71;87.76;100917.50;5091192;28;20028;-87
2021/06/11 02:16:11;;;;;;;10.43;6.25;;;;;;;21.58;88.81;100923.31;5091052;28;20028;-87
2021/06/11 02:18:36;;;;;;;7.55;5.57;;;;;;;21.61;88.93;100919.47;5090606;28;20028;-87
2021/06/11 02:21:05;;;;;;;10.88;5.07;;;;;;;21.70;87.74;100913.16;5090492;28;20541;-87
2021/06/11 02:23:31;;;;;;;8.15;5.28;;;;;;;21.69;88.21;100910.66;5089623;28;20111;-87
2021/06/11 02:25:56;;;;;;;8.38;6.30;;;;;;;21.66;87.65;100910.97;5091306;28;20413;-87
2021/06/11 02:28:22;;;;;;;7.28;5.07;;;;;;;21.56;88.24;100911.09;5090865;28;20028;-87
2021/06/11 02:30:47;;;;;;;6.25;4.90;;;;;;;21.51;88.69;100911.59;5090757;28;20058;-87
2021/06/11 02:33:14;;;;;;;7.80;5.13;;;;;;;21.64;88.04;100907.63;5091024;28;20051;-87
2021/06/11 02:35:39;;;;;;;6.45;4.57;;;;;;;21.55;88.00;100899.59;5090694;28;20073;-87
2021/06/11 02:38:05;;;;;;;5.03;3.75;;;;;;;21.28;89.60;100908.66;5090800;28;20024;-87
2021/06/11 02:40:30;;;;;;;3.88;3.40;;;;;;;21.49;88.48;100904.75;5091015;28;20031;-87
2021/06/11 02:43:06;;;;;;;8.18;4.70;;;;;;;21.51;88.69;100897.41;5093386;28;20434;-87
2021/06/11 02:45:36;;;;;;;5.18;3.90;;;;;;;21.55;88.33;100893.41;5094722;28;20020;-87
2021/06/11 02:48:27;;;;;;;5.93;3.67;;;;;;;21.69;87.63;100905.31;5094838;28;20024;-87
2021/06/11 02:51:11;;;;;;;5.30;3.42;;;;;;;21.65;87.64;100902.13;5093812;28;20558;-87
2021/06/11 02:53:37;;;;;;;6.25;3.08;;;;;;;21.70;87.46;100896.25;5094559;28;20032;-87
2021/06/11 02:56:18;;;;;;;3.80;3.22;;;;;;;21.85;86.17;100896.47;5094644;28;20020;-87
2021/06/11 02:58:49;;;;;;;3.45;3.15;;;;;;;21.72;86.58;100900.47;5094358;28;20379;-87
2021/06/11 03:01:15;;;;;;;5.57;3.92;;;;;;;21.77;86.47;100886.59;5094510;28;20043;-87
2021/06/11 03:03:43;;;;;;;6.07;4.15;;;;;;;21.65;86.97;100896.78;5094436;28;20035;-87
2021/06/11 03:06:11;;;;;;;4.38;3.70;;;;;;;21.49;87.37;100894.06;5094221;28;20047;-87
2021/06/11 03:08:40;;;;;;;5.72;4.32;;;;;;;21.31;88.95;100888.81;5094368;28;20034;-87
2021/06/11 03:11:14;;;;;;;4.80;3.97;;;;;;;21.47;87.44;100885.38;5090424;28;20059;-87
2021/06/11 03:13:42;;;;;;;7.13;4.15;;;;;;;21.24;88.50;100891.28;5094295;28;20020;-87
2021/06/11 03:16:08;;;;;;;6.43;4.65;;;;;;;21.53;86.99;100890.06;5094295;28;20024;-87
2021/06/11 03:18:38;;;;;;;5.45;4.47;;;;;;;21.56;87.22;100889.72;5094292;28;20031;-87
2021/06/11 03:21:15;;;;;;;5.68;4.43;;;;;;;21.51;87.14;100892.06;5092213;28;20039;-87
2021/06/11 03:23:49;;;;;;;6.43;4.25;;;;;;;21.52;87.26;100894.56;5094063;28;20021;-87
2021/06/11 03:26:18;;;;;;;6.28;4.55;;;;;;;21.49;87.44;100896.75;5094147;28;20065;-87
2021/06/11 03:28:52;;;;;;;8.45;4.85;;;;;;;21.60;86.58;100899.09;5093688;28;20079;-87
2021/06/11 03:31:23;;;;;;;5.43;4.55;;;;;;;21.60;86.51;100901.75;5093338;28;20031;-87
2021/06/11 03:33:57;;;;;;;7.63;5.10;;;;;;;21.75;85.52;100904.63;5093927;28;20032;-87
2021/06/11 03:36:27;;;;;;;7.30;4.75;;;;;;;21.61;85.01;100898.09;5093748;28;20036;-87
2021/06/11 03:38:58;;;;;;;6.35;4.25;;;;;;;21.44;86.03;100905.22;5093915;28;20035;-87
2021/06/11 03:41:23;;;;;;;4.38;3.63;;;;;;;21.69;84.69;100903.47;5093520;28;20047;-87
2021/06/11 03:43:50;;;;;;;9.25;4.13;;;;;;;21.41;85.85;100907.38;5093293;28;20098;-87
2021/06/11 03:46:17;;;;;;;6.00;3.90;;;;;;;21.59;84.81;100911.63;5093469;28;20074;-87
2021/06/11 03:48:46;;;;;;;6.95;3.20;;;;;;;21.51;84.68;100908.09;5093707;28;20326;-87
2021/06/11 03:51:12;;;;;;;6.05;3.22;;;;;;;21.64;83.02;100897.75;5093822;28;20028;-87
2021/06/11 03:53:40;;;;;;;4.35;2.92;;;;;;;21.53;83.45;100900.75;5092593;28;20023;-87
2021/06/11 03:56:08;;;;;;;3.80;2.88;;;;;;;21.36;84.63;100905.19;5093020;28;20032;-87
2021/06/11 03:58:40;;;;;;;2.70;2.45;;;;;;;21.43;84.18;100900.03;5093027;28;20070;-87
2021/06/11 04:01:09;;;;;;;3.35;2.22;;;;;;;21.47;83.51;100907.59;5089655;28;20061;-86
2021/06/11 04:03:39;;;;;;;3.20;2.08;;;;;;;21.34;84.06;100900.00;5093159;28;20107;-86
2021/06/11 04:06:09;;;;;;;4.00;2.17;;;;;;;21.31;84.21;100913.69;5092659;28;20024;-87
2021/06/11 04:08:35;;;;;;;2.20;2.00;;;;;;;21.30;84.32;100905.84;5093209;28;20069;-87
2021/06/11 04:11:03;;;;;;;2.25;1.85;;;;;;;21.31;84.28;100912.88;5092949;28;20042;-87
2021/06/11 04:13:43;;;;;;;2.15;1.80;;;;;;;21.32;84.08;100910.00;5093186;28;20549;-86
2021/06/11 04:16:17;;;;;;;4.53;2.15;;;;;;;21.10;85.33;100916.78;5092845;28;20451;-87
2021/06/11 04:18:45;;;;;;;2.20;2.00;;;;;;;21.34;83.76;100915.19;5092263;28;20456;-87
2021/06/11 04:21:24;;;;;;;3.60;1.95;;;;;;;21.15;84.00;100914.47;5091426;28;20048;-87
2021/06/11 04:23:52;;;;;;;2.17;1.58;;;;;;;21.05;85.13;100918.25;5090123;28;20085;-87
2021/06/11 04:26:21;;;;;;;2.55;1.90;;;;;;;21.17;84.11;100917.81;5089210;28;20473;-87
2021/06/11 04:28:47;;;;;;;3.25;2.03;;;;;;;21.08;84.70;100913.44;5092889;28;20085;-87
2021/06/11 04:31:12;;;;;;;3.97;1.60;;;;;;;21.37;82.82;100910.38;5092532;28;20027;-87
2021/06/11 04:33:38;;;;;;;1.83;1.60;;;;;;;21.47;81.69;100906.75;5092547;28;20024;-87
2021/06/11 04:36:04;;;;;;;2.03;1.83;;;;;;;21.53;81.56;100911.44;5092023;28;20023;-87
2021/06/11 04:38:42;;;;;;;1.52;1.40;;;;;;;21.40;81.77;100922.56;5092733;28;20016;-87
2021/06/11 04:41:09;;;;;;;3.83;2.15;;;;;;;21.25;82.92;100910.81;5091245;28;20054;-87
2021/06/11 04:43:35;;;;;;;2.70;1.77;;;;;;;21.47;81.76;100920.94;5092209;28;20077;-86
2021/06/11 04:46:00;;;;;;;3.20;1.58;;;;;;;21.47;81.29;100914.78;5091925;28;20127;-87
2021/06/11 04:48:25;;;;;;;6.90;2.55;;;;;;;21.22;83.35;100916.50;5091444;28;20077;-87
2021/06/11 04:50:51;;;;;;;2.28;1.73;;;;;;;21.22;83.56;100914.66;5091731;28;20055;-88
2021/06/11 04:53:16;;;;;;;1.70;1.60;;;;;;;21.37;82.43;100913.03;5094217;28;20028;-87
2021/06/11 04:55:41;;;;;;;2.30;1.50;;;;;;;21.52;82.13;100917.78;5094887;28;20037;-87
2021/06/11 04:58:07;;;;;;;3.38;1.65;;;;;;;21.59;82.11;100908.94;5092763;28;20580;-89
2021/06/11 05:00:32;;;;;;;2.92;1.52;;;;;;;21.33;83.29;100926.91;5091798;28;20046;-89
2021/06/11 05:02:57;;;;;;;2.25;1.75;;;;;;;21.39;82.53;100928.91;5091857;28;20028;-90
2021/06/11 05:05:23;;;;;;;3.65;1.98;;;;;;;21.50;82.11;100930.47;5091593;28;20062;-91
2021/06/11 05:07:48;;;;;;;2.20;1.65;;;;;;;21.55;80.90;100925.47;5092047;28;20486;-90
2021/06/11 05:10:15;;;;;;;3.42;1.77;;;;;;;21.36;82.41;100926.56;5092265;28;20482;-92
2021/06/11 05:12:40;;;;;;;2.70;1.73;;;;;;;21.53;81.69;100927.47;5091575;28;20028;-88
2021/06/11 05:15:06;;;;;;;5.10;1.83;;;;;;;21.65;81.17;100930.69;5091573;28;20109;-88
2021/06/11 05:17:32;;;;;;;4.13;1.65;;;;;;;21.65;81.23;100941.38;5091691;28;20449;-88
2021/06/11 05:19:58;;;;;;;2.13;1.73;;;;;;;21.61;81.78;100940.84;5091508;28;20554;-87
2021/06/11 05:22:23;;;;;;;4.82;1.58;;;;;;;21.76;80.43;100939.22;5092153;28;20078;-87
2021/06/11 05:24:49;;;;;;;3.25;1.70;;;;;;;21.96;79.64;100934.41;5090989;28;20020;-87
2021/06/11 05:27:15;;;;;;;2.63;1.90;;;;;;;21.61;81.24;100935.50;5087324;28;20031;-87
2021/06/11 05:29:41;;;;;;;2.80;1.50;;;;;;;21.76;80.64;100933.88;5091476;28;20031;-87
2021/06/11 05:32:06;;;;;;;2.42;1.75;;;;;;;21.69;81.27;100938.19;5091503;28;20020;-86
2021/06/11 05:34:32;;;;;;;2.53;1.90;;;;;;;21.59;81.76;100948.19;5091148;28;20045;-86
2021/06/11 05:36:57;;;;;;;5.13;2.05;;;;;;;21.50;82.37;100943.81;5090571;28;20020;-83
2021/06/11 05:39:22;;;;;;;2.13;1.70;;;;;;;21.70;81.31;100944.38;5091202;28;20054;-83
2021/06/11 05:41:48;;;;;;;1.83;1.63;;;;;;;21.81;81.12;100945.91;5086962;28;20085;-83
2021/06/11 05:44:13;;;;;;;1.75;1.60;;;;;;;21.61;82.14;100946.19;5089684;28;20106;-83
2021/06/11 05:46:39;;;;;;;3.63;1.77;;;;;;;21.54;82.56;100945.16;5091105;28;20032;-83
2021/06/11 05:49:04;;;;;;;1.80;1.70;;;;;;;21.35;83.15;100940.91;5090909;28;20071;-84
2021/06/11 05:51:30;;;;;;;3.00;2.05;;;;;;;21.47;82.47;100946.84;5091351;28;20474;-83
2021/06/11 05:53:55;;;;;;;3.15;1.90;;;;;;;21.55;82.28;100941.50;5091319;28;20093;-83
2021/06/11 05:56:21;;;;;;;3.45;1.65;;;;;;;21.60;81.99;100947.19;5090899;28;20424;-84
2021/06/11 05:58:47;;;;;;;3.45;1.95;;;;;;;21.68;81.94;100949.91;5090746;28;20498;-83
2021/06/11 06:01:12;;;;;;;4.07;1.98;;;;;;;21.64;81.30;100945.84;5091740;28;20020;-83
2021/06/11 06:03:38;;;;;;;3.45;1.80;;;;;;;21.70;81.58;100952.38;5091782;28;20036;-83
2021/06/11 06:06:03;;;;;;;2.67;1.65;;;;;;;21.67;81.32;100944.72;5091573;28;20046;-83
2021/06/11 06:08:28;;;;;;;2.15;1.60;;;;;;;21.81;80.47;100948.59;5091129;28;20038;-83
2021/06/11 06:10:54;;;;;;;3.75;1.80;;;;;;;21.90;80.10;100944.91;5090849;28;20081;-83
2021/06/11 06:13:20;;;;;;;2.50;1.70;;;;;;;22.06;78.51;100952.97;5091049;28;20020;-89
2021/06/11 06:15:46;;;;;;;1.98;1.58;;;;;;;22.22;78.07;100960.16;5090545;28;20073;-85
2021/06/11 06:18:12;;;;;;;3.60;2.00;;;;;;;21.85;78.34;100949.94;5093750;28;20024;-85
2021/06/11 06:20:38;;;;;;;2.70;1.70;;;;;;;21.90;78.45;100953.78;5094758;28;20031;-85
2021/06/11 06:23:03;;;;;;;10.32;1.92;;;;;;;21.63;79.17;100954.88;5095233;28;20024;-85
2021/06/11 06:25:29;;;;;;;2.53;1.65;;;;;;;21.56;79.71;100964.53;5095872;28;20016;-85
2021/06/11 06:27:54;;;;;;;3.55;2.10;;;;;;;21.57;79.68;100959.03;5094243;28;20028;-85
2021/06/11 06:30:22;;;;;;;4.55;1.90;;;;;;;21.53;78.37;100964.88;5094193;28;20496;-85
2021/06/11 06:32:47;;;;;;;3.22;1.60;;;;;;;21.62;77.98;100974.56;5094763;28;20024;-84
2021/06/11 06:35:13;;;;;;;2.65;1.98;;;;;;;20.96;82.64;100971.59;5093221;28;20024;-84
2021/06/11 06:37:39;;;;;;;5.50;2.53;;;;;;;21.33;81.84;100980.31;5094909;28;20101;-84
2021/06/11 06:40:07;;;;;;;3.85;1.90;;;;;;;21.44;80.42;100971.19;5094771;28;20381;-84
2021/06/11 06:42:32;;;;;;;3.15;1.95;;;;;;;21.69;78.74;100980.13;5094723;28;20024;-84
2021/06/11 06:44:57;;;;;;;4.88;2.40;;;;;;;21.40;79.36;100970.63;5090851;28;20043;-84
2021/06/11 06:47:23;;;;;;;4.47;3.00;;;;;;;21.34;78.65;100977.47;5094383;28;20032;-84
2021/06/11 06:49:48;;;;;;;5.35;2.70;;;;;;;21.36;78.77;100972.78;5094861;28;20042;-85
2021/06/11 06:52:15;;;;;;;4.30;1.77;;;;;;;21.72;76.54;100969.09;5094141;28;20106;-84
2021/06/11 06:54:42;;;;;;;4.47;1.80;;;;;;;21.91;75.67;100965.31;5094796;28;20028;-85
2021/06/11 06:57:08;;;;;;;2.45;1.63;;;;;;;21.84;75.68;100966.94;5094408;28;20419;-85
2021/06/11 06:59:33;;;;;;;2.50;1.38;;;;;;;22.01;75.10;100968.66;5094687;28;20030;-85
2021/06/11 07:02:00;;;;;;;6.43;2.13;;;;;;;21.65;76.38;100968.09;5093869;28;20028;-85
2021/06/11 07:04:28;;;;;;;6.57;2.28;;;;;;;21.82;74.83;100964.47;5095134;28;20024;-84
2021/06/11 07:06:54;;;;;;;5.22;1.65;;;;;;;21.64;75.37;100977.94;5095053;28;20024;-85
2021/06/11 07:09:20;;;;;;;4.35;1.80;;;;;;;21.62;74.98;100974.56;5089107;28;20081;-84
2021/06/11 07:11:48;;;;;;;4.05;1.58;;;;;;;21.67;75.31;100974.13;5094196;28;20194;-84
2021/06/11 07:14:15;;;;;;;4.25;2.10;;;;;;;22.08;73.90;100976.88;5094183;28;20024;-85
2021/06/11 07:16:41;;;;;;;4.35;1.40;;;;;;;22.21;72.33;100979.03;5093874;28;20104;-85
2021/06/11 07:19:06;;;;;;;3.03;1.45;;;;;;;22.24;71.91;100974.22;5079120;28;20352;-84
2021/06/11 07:21:31;;;;;;;3.83;1.10;;;;;;;22.35;71.08;100975.72;5090520;28;20085;-84
2021/06/11 07:23:57;;;;;;;4.65;2.30;;;;;;;22.53;71.69;100983.56;5093884;28;20434;-84
2021/06/11 07:26:22;;;;;;;2.80;1.40;;;;;;;22.50;70.20;100968.69;5093488;28;20530;-84
2021/06/11 07:28:47;;;;;;;4.90;1.80;;;;;;;23.09;68.50;100971.13;5093930;28;20032;-86
2021/06/11 07:31:13;;;;;;;5.65;1.40;;;;;;;23.10;66.92;100980.81;5089270;28;20398;-86
2021/06/11 07:33:38;;;;;;;2.67;1.08;;;;;;;23.05;67.41;100975.16;5074214;28;20044;-86
2021/06/11 07:36:04;;;;;;;2.20;1.23;;;;;;;22.73;66.00;100973.38;5081795;28;20025;-86
2021/06/11 07:38:30;;;;;;;1.30;0.73;;;;;;;22.69;67.04;100969.31;5074267;28;20016;-85
2021/06/11 07:40:55;;;;;;;1.60;0.77;;;;;;;23.01;66.03;100986.34;5085397;28;20099;-86
2021/06/11 07:43:21;;;;;;;1.60;0.95;;;;;;;22.65;68.04;100976.03;5093635;28;20024;-86
2021/06/11 07:45:48;;;;;;;3.90;1.00;;;;;;;22.75;66.75;100982.06;5093226;28;20016;-86
2021/06/11 07:48:13;;;;;;;4.00;1.02;;;;;;;22.70;66.75;100974.53;5088047;28;20020;-86
2021/06/11 07:50:39;;;;;;;10.82;1.27;;;;;;;22.54;68.02;100980.72;5093338;28;20026;-85
2021/06/11 07:53:05;;;;;;;2.20;0.77;;;;;;;21.95;71.52;100990.72;5093889;28;20038;-86
2021/06/11 07:55:31;;;;;;;3.22;0.90;;;;;;;21.84;72.15;100993.69;5094238;28;20067;-85
2021/06/11 07:57:56;;;;;;;6.03;1.10;;;;;;;21.68;73.02;100995.34;5093974;28;20020;-85
2021/06/11 08:00:22;;;;;;;1.55;0.90;;;;;;;21.93;72.93;101003.41;5093911;28;20031;-86
2021/06/11 08:02:48;;;;;;;4.63;1.20;;;;;;;22.13;71.13;100990.56;5094022;28;20069;-85
2021/06/11 08:05:13;;;;;;;3.90;1.17;;;;;;;22.26;71.17;101000.81;5094191;28;20389;-86
2021/06/11 08:07:39;;;;;;;3.80;1.27;;;;;;;22.34;70.88;101003.50;5093966;28;20028;-85
2021/06/11 08:10:05;;;;;;;4.13;1.25;;;;;;;22.63;71.23;101004.81;5093755;28;20085;-86
2021/06/11 08:12:31;;;;;;;4.10;1.65;;;;;;;22.83;69.97;101005.28;5093870;28;20027;-86
2021/06/11 08:14:58;;;;;;;3.13;1.40;;;;;;;22.65;70.33;101018.84;5087184;28;20386;-86
2021/06/11 08:17:23;;;;;;;3.00;1.70;;;;;;;22.61;70.73;101021.06;5073585;28;20029;-86
2021/06/11 08:19:49;;;;;;;4.35;2.03;;;;;;;22.31;72.23;101019.84;5086125;28;20385;-85
2021/06/11 08:22:15;;;;;;;7.07;2.40;;;;;;;22.32;73.68;101024.22;5093650;28;20082;-86
2021/06/11 08:24:40;;;;;;;6.05;1.77;;;;;;;22.02;76.12;101039.88;5093229;28;20027;-86
2021/06/11 08:27:06;;;;;;;3.13;1.30;;;;;;;21.99;79.24;101040.19;5093713;28;20474;-86
2021/06/11 08:29:31;;;;;;;2.83;1.00;;;;;;;21.87;79.70;101041.50;5093592;28;20027;-86
2021/06/11 08:31:57;;;;;;;2.97;1.13;;;;;;;21.83;80.78;101034.78;5093552;28;20129;-86
2021/06/11 08:34:22;;;;;;;4.22;1.02;;;;;;;21.53;81.99;101045.03;5093380;28;20081;-85
2021/06/11 08:36:47;;;;;;;3.10;1.45;;;;;;;21.45;82.11;101047.69;5093466;28;20165;-85
2021/06/11 08:39:13;;;;;;;1.55;0.85;;;;;;;21.67;81.62;101041.75;5092561;28;20569;-85
2021/06/11 08:41:39;;;;;;;1.15;0.65;;;;;;;21.82;78.72;101041.13;5091440;28;20028;-85
2021/06/11 08:44:07;;;;;;;5.68;1.90;;;;;;;22.04;79.25;101040.53;5092965;28;20385;-86
2021/06/11 08:46:33;;;;;;;3.75;0.85;;;;;;;21.97;77.88;101039.50;5093091;28;20477;-86
2021/06/11 08:49:01;;;;;;;0.70;0.68;;;;;;;21.35;80.97;101037.91;5080416;28;20035;-85
2021/06/11 08:51:28;;;;;;;1.10;0.70;;;;;;;21.74;79.69;101026.75;5072895;28;20513;-85
2021/06/11 08:53:53;;;;;;;2.05;1.27;;;;;;;22.06;79.87;101035.84;5073147;28;20032;-85
2021/06/11 08:56:19;;;;;;;1.23;0.60;;;;;;;22.50;78.04;101026.72;5073835;28;20024;-86
2021/06/11 08:58:44;;;;;;;2.25;0.90;;;;;;;22.24;78.58;101025.06;5092721;28;20028;-86
2021/06/11 09:01:10;;;;;;;2.15;1.13;;;;;;;23.07;73.57;101017.84;5092890;28;20020;-85
2021/06/11 09:03:43;;;;;;;0.75;0.65;;;;;;;23.15;72.45;101020.50;5093028;28;20431;-85
2021/06/11 09:06:12;;;;;;;0.90;0.60;;;;;;;23.92;68.87;101014.47;5088421;28;20055;-85
2021/06/11 09:08:48;;;;;;;1.65;0.68;;;;;;;24.85;65.99;101012.59;5084604;28;20024;-85
2021/06/11 09:11:22;;;;;;;1.63;0.57;;;;;;;25.04;64.14;101008.50;5091890;28;20059;-85
2021/06/11 09:14:11;;;;;;;1.45;0.60;;;;;;;24.89;62.18;101005.84;5091455;28;20027;-85
2021/06/11 09:16:48;;;;;;;1.15;0.63;;;;;;;25.99;58.91;100999.63;5093136;28;20020;-86
2021/06/11 09:19:23;;;;;;;1.95;0.68;;;;;;;26.00;58.04;100998.59;5092672;28;20428;-86
2021/06/11 09:21:58;;;;;;;2.50;0.40;;;;;;;26.34;54.17;100982.75;5092621;28;20043;-86
2021/06/11 09:24:26;;;;;;;1.05;0.45;;;;;;;25.81;56.49;100993.81;5091830;28;20027;-85
2021/06/11 09:26:58;;;;;;;1.35;0.40;;;;;;;25.79;54.64;100994.03;5089944;28;20120;-85
2021/06/11 09:29:50;;;;;;;2.10;0.40;;;;;;;25.06;56.24;100993.03;5092189;28;20055;-86
2021/06/11 09:32:25;;;;;;;1.50;0.50;;;;;;;25.55;56.89;100992.47;5089831;28;20050;-85
2021/06/11 09:34:56;;;;;;;0.75;0.38;;;;;;;25.68;55.77;100997.19;5091685;28;20043;-86
2021/06/11 09:37:30;;;;;;;0.90;0.40;;;;;;;25.92;56.09;100993.34;5091119;28;20028;-86
2021/06/11 09:40:03;;;;;;;10.38;0.50;;;;;;;25.14;56.99;100995.66;5091027;28;20051;-86
2021/06/11 09:42:34;;;;;;;1.48;0.45;;;;;;;24.93;57.58;100999.91;5087984;28;20073;-86
2021/06/11 09:45:07;;;;;;;0.63;0.38;;;;;;;25.24;56.15;101001.63;5092224;28;20027;-86
2021/06/11 09:47:43;;;;;;;0.68;0.45;;;;;;;25.43;56.92;101004.75;5092107;28;20027;-86
2021/06/11 09:50:27;;;;;;;2.58;0.70;;;;;;;24.94;58.31;101000.72;5092188;28;20028;-86
2021/06/11 09:52:58;;;;;;;1.15;0.40;;;;;;;24.86;57.71;100999.00;5091232;28;20024;-86
2021/06/11 09:55:35;;;;;;;1.63;0.60;;;;;;;25.07;58.95;101000.09;5091925;28;20024;-86
2021/06/11 09:58:02;;;;;;;2.05;0.50;;;;;;;24.78;58.87;101006.28;5092143;28;20022;-86
2021/06/11 10:00:35;;;;;;;2.00;0.50;;;;;;;25.49;56.98;100994.09;5091674;28;20038;-86
2021/06/11 10:03:02;;;;;;;1.08;0.50;;;;;;;25.99;54.83;100996.09;5091968;28;20077;-86
2021/06/11 10:05:28;;;;;;;1.02;0.43;;;;;;;26.10;54.36;100990.22;5091961;28;20434;-86
2021/06/11 10:07:55;;;;;;;1.83;0.43;;;;;;;26.19;53.95;100997.13;5090637;28;20436;-86
2021/06/11 10:10:21;;;;;;;1.60;0.25;;;;;;;26.37;54.56;100993.97;5091853;28;20107;-86
2021/06/11 10:12:47;;;;;;;0.85;0.20;;;;;;;26.94;51.52;100989.47;5091599;28;20034;-86
2021/06/11 10:15:15;;;;;;;0.45;0.35;;;;;;;27.10;51.08;100985.63;5091802;28;20036;-86
2021/06/11 10:17:42;;;;;;;1.85;0.35;;;;;;;27.16;50.29;100979.41;5091964;28;20024;-87
2021/06/11 10:20:10;;;;;;;0.45;0.30;;;;;;;26.64;51.18;100975.34;5091871;28;20039;-86
2021/06/11 10:22:37;;;;;;;0.50;0.20;;;;;;;26.51;50.80;100974.19;5091930;28;20020;-86
2021/06/11 10:25:03;;;;;;;0.75;0.20;;;;;;;27.62;49.81;100972.56;5091888;28;20016;-86
2021/06/11 10:27:29;;;;;;;1.05;0.30;;;;;;;27.00;51.05;100964.41;5091459;28;20155;-86
2021/06/11 10:29:55;;;;;;;1.25;0.38;;;;;;;27.24;50.31;100965.78;5091852;28;20039;-86
2021/06/11 10:32:21;;;;;;;0.60;0.38;;;;;;;27.11;50.53;100960.31;5091449;28;20020;-86
2021/06/11 10:34:54;;;;;;;0.50;0.25;;;;;;;27.38;50.30;100955.06;5091637;28;20032;-86
2021/06/11 10:37:36;;;;;;;1.42;0.40;;;;;;;27.48;50.72;100947.44;5091614;28;20036;-86
2021/06/11 10:40:20;;;;;;;1.25;0.30;;;;;;;27.22;50.48;100946.25;5091696;28;20366;-86
2021/06/11 10:42:45;;;;;;;1.98;0.45;;;;;;;27.73;50.12;100936.09;5091377;28;20107;-86
2021/06/11 10:45:14;;;;;;;0.40;0.20;;;;;;;27.37;49.34;100942.63;5091686;28;20108;-86
2021/06/11 10:48:06;;;;;;;0.25;0.20;;;;;;;27.03;49.96;100949.69;5091611;28;20028;-86
2021/06/11 10:50:32;;;;;;;;;;;;;;;27.13;49.51;100935.84;5090141;28;20036;-86
2021/06/11 10:53:28;;;;;;;4.57;0.43;;;;;;;26.97;50.02;100942.41;5091697;28;20408;-86
2021/06/11 10:56:15;;;;;;;6.50;0.73;;;;;;;26.90;51.44;100953.16;5091880;28;20522;-86
2021/06/11 10:58:46;;;;;;;1.67;0.70;;;;;;;26.98;50.73;100949.47;5091667;28;20031;-86
2021/06/11 11:01:25;;;;;;;3.60;0.40;;;;;;;26.21;52.93;100956.56;5091552;28;20034;-85
2021/06/11 11:03:52;;;;;;;3.35;0.50;;;;;;;27.20;50.51;100956.41;5093844;28;20166;-86
2021/06/11 11:06:25;;;;;;;0.77;0.40;;;;;;;27.43;49.91;100960.69;5094848;28;20030;-86
2021/06/11 11:08:53;;;;;;;3.25;0.55;;;;;;;27.50;49.41;100959.66;5095121;28;20034;-85
2021/06/11 11:11:33;;;;;;;3.75;0.50;;;;;;;27.54;49.10;100965.50;5095173;28;20020;-86
2021/06/11 11:13:58;;;;;;;1.35;0.47;;;;;;;28.04;48.51;100963.38;5095011;28;20016;-85
2021/06/11 11:16:26;;;;;;;2.78;0.50;;;;;;;28.27;47.45;100959.41;5095034;28;20377;-86
2021/06/11 11:18:52;;;;;;;2.30;0.32;;;;;;;27.64;49.35;100960.53;5093577;28;20012;-86
2021/06/11 11:21:21;;;;;;;1.00;0.32;;;;;;;28.09;47.07;100955.47;5093752;28;20020;-86
2021/06/11 11:23:51;;;;;;;1.48;0.40;;;;;;;28.38;46.55;100953.41;5095206;28;20071;-86
2021/06/11 11:26:17;;;;;;;0.95;0.40;;;;;;;29.74;44.96;100959.06;5095578;28;20028;-86
2021/06/11 11:28:42;;;;;;;2.30;0.47;;;;;;;29.76;43.89;100957.81;5094513;28;20040;-86